Terminal Aerodrome Forecast
Issued by NWS

Home | Current Version | Previous Version | Text Only | Print | Product List | Glossary On
Versions: 1 2 3 4 5 6 7 8 9 10 11 12 13
000
FTUS45 KRIW 010526
TAFRKS
TAF
KRKS 010526Z 0106/0206 07008KT P6SM SCT090
     FM010900 07007KT P6SM SKC
     FM011300 VRB05KT P6SM SKC
     FM012000 28009KT P6SM SCT250=

USA.gov is the U.S. government's official web portal to all federal, state and local government web resources and services.